createdAt,value
2023-01-03T00:03:33.345Z,100091.31
2023-01-03T00:06:00.136Z,100084.66
2023-01-03T00:08:27.623Z,100079.75
2023-01-03T00:10:54.384Z,100062.91
2023-01-03T00:13:21.414Z,100095.78
2023-01-03T00:15:48.293Z,100076.56
2023-01-03T00:18:15.003Z,100088.91
2023-01-03T00:20:41.885Z,100086.25
2023-01-03T00:23:08.602Z,100085.00
2023-01-03T00:25:35.381Z,100104.50
2023-01-03T00:28:02.117Z,100099.81
2023-01-03T00:30:29.187Z,100090.75
2023-01-03T00:32:56.117Z,100085.75
2023-01-03T00:35:22.926Z,100103.91
2023-01-03T00:37:49.672Z,100097.00
2023-01-03T00:40:16.529Z,100082.66
2023-01-03T00:43:02.292Z,100072.03
2023-01-03T00:45:33.623Z,100095.94
2023-01-03T00:48:02.194Z,100121.06
2023-01-03T00:50:28.985Z,100103.19
2023-01-03T00:52:56.198Z,100111.41
2023-01-03T00:55:22.966Z,100114.75
2023-01-03T00:57:49.695Z,100111.56
2023-01-03T01:00:16.644Z,100118.50
2023-01-03T01:02:43.575Z,100119.28
2023-01-03T01:05:10.535Z,100116.00
2023-01-03T01:07:37.383Z,100136.47
2023-01-03T01:10:04.481Z,100118.50
2023-01-03T01:12:31.216Z,100129.91
2023-01-03T01:14:57.945Z,100135.75
2023-01-03T01:17:24.692Z,100147.94
2023-01-03T01:19:51.432Z,100156.13
2023-01-03T01:22:18.176Z,100153.88
2023-01-03T01:24:45.383Z,100156.59
2023-01-03T01:27:12.366Z,100168.84
2023-01-03T01:29:39.660Z,100167.09
2023-01-03T01:32:07.110Z,100176.47
2023-01-03T01:34:33.915Z,100155.94
2023-01-03T01:37:00.810Z,100161.66
2023-01-03T01:39:29.080Z,100172.28
2023-01-03T01:42:30.434Z,100178.53
2023-01-03T01:45:15.364Z,100187.28
2023-01-03T01:48:00.016Z,100189.09
2023-01-03T01:50:37.581Z,100187.38
2023-01-03T01:53:10.215Z,100194.31
2023-01-03T01:55:53.979Z,100184.56
2023-01-03T01:58:24.000Z,100179.25
2023-01-03T02:00:50.771Z,100177.59
2023-01-03T02:03:17.599Z,100187.28
2023-01-03T02:05:51.310Z,100188.53
2023-01-03T02:08:18.323Z,100176.75
2023-01-03T02:10:54.339Z,100197.28
2023-01-03T02:13:51.970Z,100202.38
2023-01-03T02:16:53.964Z,100203.25
2023-01-03T02:19:49.697Z,100205.22
2023-01-03T02:22:37.071Z,100195.75
2023-01-03T02:25:22.841Z,100206.28
2023-01-03T02:28:18.517Z,100206.41
2023-01-03T02:31:27.627Z,100200.84
2023-01-03T02:34:29.667Z,100187.19
2023-01-03T02:37:21.858Z,100193.09
2023-01-03T02:40:07.033Z,100202.47
2023-01-03T02:43:05.748Z,100194.75
2023-01-03T02:45:59.339Z,100202.88
2023-01-03T02:48:49.184Z,100207.47
2023-01-03T02:51:22.119Z,100215.56
2023-01-03T02:53:51.279Z,100206.63
2023-01-03T02:56:28.990Z,100201.50
2023-01-03T02:59:00.415Z,100219.66
2023-01-03T03:01:30.159Z,100215.28
2023-01-03T03:03:58.771Z,100216.47
2023-01-03T03:06:45.557Z,100198.50
2023-01-03T03:09:12.346Z,100211.59
2023-01-03T03:12:00.768Z,100217.00
2023-01-03T03:14:42.194Z,100217.84
2023-01-03T03:17:24.014Z,100209.50
2023-01-03T03:20:15.045Z,100212.56
2023-01-03T03:23:11.223Z,100194.97
2023-01-03T03:25:52.385Z,100207.22
2023-01-03T03:28:36.745Z,100210.75
2023-01-03T03:31:12.628Z,100217.66
2023-01-03T03:33:46.963Z,100208.81
2023-01-03T03:36:21.073Z,100208.03
2023-01-03T03:38:48.140Z,100205.63
2023-01-03T03:42:00.984Z,100204.69
2023-01-03T03:45:00.891Z,100217.47
2023-01-03T03:47:36.824Z,100208.97
2023-01-03T03:50:10.952Z,100214.59
2023-01-03T03:52:43.165Z,100212.94
2023-01-03T03:55:26.113Z,100214.09
2023-01-03T03:58:03.904Z,100218.59
2023-01-03T04:00:35.015Z,100223.19
2023-01-03T04:03:05.476Z,100206.84
2023-01-03T04:05:37.573Z,100221.91
2023-01-03T04:08:04.627Z,100207.88
2023-01-03T04:10:37.418Z,100209.50
2023-01-03T04:13:05.583Z,100208.88
2023-01-03T04:15:32.374Z,100213.03
2023-01-03T04:18:02.046Z,100203.81
2023-01-03T04:20:29.660Z,100220.13
2023-01-03T04:22:56.813Z,100214.81
2023-01-03T04:25:23.785Z,100222.72
2023-01-03T04:27:50.508Z,100215.97
2023-01-03T04:30:17.724Z,100230.91
2023-01-03T04:32:44.480Z,100222.06
2023-01-03T04:35:11.211Z,100230.66
2023-01-03T04:37:38.284Z,100210.16
2023-01-03T04:40:05.509Z,100220.69
2023-01-03T04:42:51.030Z,100219.13
2023-01-03T04:45:17.848Z,100218.34
2023-01-03T04:47:44.649Z,100181.03
2023-01-03T04:50:11.356Z,100217.34
2023-01-03T04:52:38.147Z,100208.06
2023-01-03T04:55:05.184Z,100222.59
2023-01-03T04:57:31.931Z,100212.13
2023-01-03T04:59:58.663Z,100213.22
2023-01-03T05:02:26.759Z,100221.81
2023-01-03T05:04:53.536Z,100235.19
2023-01-03T05:07:20.280Z,100238.88
2023-01-03T05:09:47.004Z,100237.00
2023-01-03T05:12:13.778Z,100225.59
2023-01-03T05:14:43.358Z,100233.47
2023-01-03T05:17:10.184Z,100225.84
2023-01-03T05:19:57.053Z,100237.56
2023-01-03T05:22:42.383Z,100238.88
2023-01-03T05:25:29.185Z,100244.03
2023-01-03T05:27:57.603Z,100239.56
2023-01-03T05:30:25.154Z,100241.97
2023-01-03T05:32:51.868Z,100245.25
2023-01-03T05:35:18.930Z,100239.00
2023-01-03T05:37:45.810Z,100248.16
2023-01-03T05:40:12.967Z,100245.94
2023-01-03T05:42:39.760Z,100236.75
2023-01-03T05:45:07.302Z,100256.75
2023-01-03T05:47:34.088Z,100252.09
2023-01-03T05:50:00.781Z,100254.53
2023-01-03T05:52:27.667Z,100256.75
2023-01-03T05:54:54.399Z,100260.97
2023-01-03T05:57:21.141Z,100258.88
2023-01-03T05:59:47.922Z,100249.00
2023-01-03T06:02:14.858Z,100267.19
2023-01-03T06:04:41.835Z,100266.84
2023-01-03T06:07:08.609Z,100253.63
2023-01-03T06:09:35.345Z,100255.00
2023-01-03T06:12:02.176Z,100262.47
2023-01-03T06:14:28.926Z,100260.69
2023-01-03T06:17:13.932Z,100247.88
2023-01-03T06:19:40.800Z,100255.63
2023-01-03T06:22:10.713Z,100260.94
2023-01-03T06:24:38.014Z,100270.28
2023-01-03T06:27:04.746Z,100265.91
2023-01-03T06:29:31.495Z,100274.06
2023-01-03T06:32:00.186Z,100271.91
2023-01-03T06:34:30.449Z,100276.22
2023-01-03T06:36:57.209Z,100293.72
2023-01-03T06:39:24.069Z,100295.09
2023-01-03T06:41:50.838Z,100292.38
2023-01-03T06:44:17.674Z,100298.38
2023-01-03T06:47:03.047Z,100308.34
2023-01-03T06:49:48.299Z,100310.31
2023-01-03T06:52:35.384Z,100306.34
2023-01-03T06:55:02.934Z,100312.72
2023-01-03T06:57:29.659Z,100322.41
2023-01-03T06:59:56.404Z,100312.47
2023-01-03T07:02:23.414Z,100320.09
2023-01-03T07:04:50.408Z,100320.19
2023-01-03T07:07:17.190Z,100316.06
2023-01-03T07:09:43.896Z,100313.91
2023-01-03T07:12:29.402Z,100328.94
2023-01-03T07:14:56.095Z,100327.28
2023-01-03T07:17:22.884Z,100340.69
2023-01-03T07:19:49.669Z,100334.84
2023-01-03T07:22:16.345Z,100340.00
2023-01-03T07:24:43.068Z,100353.31
2023-01-03T07:27:09.791Z,100351.59
2023-01-03T07:29:36.486Z,100354.84
2023-01-03T07:32:03.372Z,100359.25
2023-01-03T07:34:31.040Z,100355.63
2023-01-03T07:36:57.789Z,100348.41
2023-01-03T07:39:24.505Z,100344.72
2023-01-03T07:42:09.511Z,100360.09
2023-01-03T07:44:36.262Z,100356.91
2023-01-03T07:47:03.007Z,100367.41
2023-01-03T07:49:29.921Z,100367.41
2023-01-03T07:51:56.741Z,100365.59
2023-01-03T07:54:23.540Z,100359.66
2023-01-03T07:56:50.285Z,100363.88
2023-01-03T07:59:17.303Z,100357.19
2023-01-03T08:01:44.183Z,100375.78
2023-01-03T08:04:11.177Z,100390.91
2023-01-03T08:06:37.963Z,100385.03
2023-01-03T08:09:23.593Z,100367.84
2023-01-03T08:12:08.573Z,100382.28
2023-01-03T08:14:35.343Z,100396.66
2023-01-03T08:17:02.194Z,100392.88
2023-01-03T08:19:29.221Z,100401.81
2023-01-03T08:21:56.087Z,100367.16
2023-01-03T08:24:22.809Z,100390.91
2023-01-03T08:26:49.693Z,100392.50
2023-01-03T08:29:16.546Z,100394.88
2023-01-03T08:31:54.111Z,100385.91
2023-01-03T08:34:29.056Z,100400.91
2023-01-03T08:37:02.327Z,100401.34
2023-01-03T08:39:33.979Z,100397.56
2023-01-03T08:42:04.358Z,100388.53
2023-01-03T08:44:31.332Z,100391.59
2023-01-03T08:47:02.482Z,100382.41
2023-01-03T08:49:30.249Z,100412.06
2023-01-03T08:51:57.013Z,100405.94
2023-01-03T08:54:23.831Z,100401.81
2023-01-03T08:56:50.607Z,100406.66
2023-01-03T08:59:17.481Z,100419.56
2023-01-03T09:01:44.361Z,100421.38
2023-01-03T09:04:11.265Z,100428.25
2023-01-03T09:06:38.334Z,100424.94
2023-01-03T09:09:09.025Z,100427.91
2023-01-03T09:11:36.145Z,100429.81
2023-01-03T09:14:02.942Z,100410.06
2023-01-03T09:16:29.860Z,100420.78
2023-01-03T09:18:56.816Z,100426.69
2023-01-03T09:21:23.661Z,100413.09
2023-01-03T09:23:50.521Z,100415.19
2023-01-03T09:26:17.346Z,100424.78
2023-01-03T09:28:44.121Z,100425.13
2023-01-03T09:31:10.927Z,100418.41
2023-01-03T09:33:37.716Z,100411.25
2023-01-03T09:36:05.108Z,100407.06
2023-01-03T09:38:31.846Z,100412.78
2023-01-03T09:41:17.729Z,100416.59
2023-01-03T09:43:48.352Z,100417.59
2023-01-03T09:46:27.680Z,100423.03
2023-01-03T09:48:56.009Z,100423.31
2023-01-03T09:51:45.510Z,100422.72
2023-01-03T09:54:40.692Z,100419.00
2023-01-03T09:57:44.629Z,100415.13
2023-01-03T10:00:52.173Z,100427.72
2023-01-03T10:03:51.506Z,100417.50
2023-01-03T10:06:30.837Z,100411.34
2023-01-03T10:09:21.096Z,100421.03
2023-01-03T10:12:12.648Z,100429.72
2023-01-03T10:15:06.253Z,100422.44
2023-01-03T10:17:37.879Z,100434.25
2023-01-03T10:20:51.686Z,100424.63
2023-01-03T10:23:18.990Z,100429.19
2023-01-03T10:25:47.230Z,100426.53
2023-01-03T10:28:26.315Z,100430.38
2023-01-03T10:31:13.595Z,100413.00
2023-01-03T10:33:49.149Z,100407.84
2023-01-03T10:36:18.307Z,100413.06
2023-01-03T10:38:52.445Z,100411.81
2023-01-03T10:41:46.107Z,100414.19
2023-01-03T10:44:30.729Z,100395.91
2023-01-03T10:47:15.911Z,100412.91
2023-01-03T10:49:45.428Z,100410.09
2023-01-03T10:52:19.728Z,100400.16
2023-01-03T10:54:53.487Z,100409.38
2023-01-03T10:57:43.902Z,100404.22
2023-01-03T11:00:27.121Z,100409.78
2023-01-03T11:02:56.216Z,100412.13
2023-01-03T11:05:27.073Z,100402.81
2023-01-03T11:07:59.129Z,100401.69
2023-01-03T11:10:37.584Z,100402.91
2023-01-03T11:13:22.923Z,100401.22
2023-01-03T11:15:57.097Z,100406.50
2023-01-03T11:18:27.809Z,100403.25
2023-01-03T11:20:57.671Z,100406.69
2023-01-03T11:23:33.469Z,100403.03
2023-01-03T11:26:16.501Z,100373.69
2023-01-03T11:29:01.528Z,100397.59
2023-01-03T11:31:45.679Z,100390.09
2023-01-03T11:35:20.096Z,100393.59
2023-01-03T11:38:08.932Z,100392.09
2023-01-03T11:40:54.061Z,100384.53
2023-01-03T11:43:27.439Z,100367.69
2023-01-03T11:46:12.186Z,100369.78
2023-01-03T11:49:03.786Z,100379.13
2023-01-03T11:51:48.523Z,100375.69
2023-01-03T11:54:36.581Z,100375.88
2023-01-03T11:57:17.207Z,100371.03
2023-01-03T12:00:00.340Z,100371.50
2023-01-03T12:02:50.419Z,100363.47
2023-01-03T12:05:17.420Z,100359.53
2023-01-03T12:07:56.582Z,100368.00
2023-01-03T12:10:44.463Z,100366.50
2023-01-03T12:13:32.718Z,100347.78
2023-01-03T12:16:04.715Z,100367.63
2023-01-03T12:18:51.556Z,100361.34
2023-01-03T12:21:28.966Z,100369.06
2023-01-03T12:24:03.063Z,100365.94
2023-01-03T12:26:32.217Z,100368.72
2023-01-03T12:29:11.729Z,100360.81
2023-01-03T12:31:46.619Z,100343.81
2023-01-03T12:34:24.896Z,100352.56
2023-01-03T12:37:03.331Z,100338.53
2023-01-03T12:39:56.566Z,100358.34
2023-01-03T12:42:29.685Z,100357.09
2023-01-03T12:45:00.319Z,100356.16
2023-01-03T12:47:40.356Z,100343.44
2023-01-03T12:50:07.011Z,100358.34
2023-01-03T12:52:37.494Z,100342.06
2023-01-03T12:55:35.143Z,100348.97
2023-01-03T12:58:04.506Z,100350.94
2023-01-03T13:00:53.722Z,100344.31
2023-01-03T13:03:47.974Z,100347.97
2023-01-03T13:06:37.525Z,100334.41
2023-01-03T13:09:08.530Z,100356.84
2023-01-03T13:11:42.217Z,100344.94
2023-01-03T13:14:26.493Z,100356.28
2023-01-03T13:16:55.165Z,100359.06
2023-01-03T13:19:21.969Z,100355.19
2023-01-03T13:22:06.802Z,100348.44
2023-01-03T13:24:42.866Z,100355.97
2023-01-03T13:27:21.457Z,100353.31
2023-01-03T13:29:53.327Z,100345.25
2023-01-03T13:32:23.071Z,100347.25
2023-01-03T13:35:15.677Z,100348.22
2023-01-03T13:37:51.413Z,100353.81
2023-01-03T13:41:17.083Z,100342.31
2023-01-03T13:43:40.162Z,100353.25
2023-01-03T13:46:31.771Z,100355.16
2023-01-03T13:49:06.580Z,100362.00
2023-01-03T13:51:33.307Z,100348.41
2023-01-03T13:54:04.255Z,100358.97
2023-01-03T13:56:52.883Z,100352.75
2023-01-03T13:59:29.775Z,100356.84
2023-01-03T14:02:22.702Z,100356.81
2023-01-03T14:05:54.215Z,100362.47
2023-01-03T14:08:35.589Z,100357.09
2023-01-03T14:11:31.991Z,100371.59
2023-01-03T14:14:11.715Z,100371.59
2023-01-03T14:16:47.628Z,100384.94
2023-01-03T14:19:36.546Z,100377.78
2023-01-03T14:22:27.163Z,100378.78
2023-01-03T14:24:57.718Z,100378.31
2023-01-03T14:27:32.897Z,100383.75
2023-01-03T14:30:00.818Z,100378.13
2023-01-03T14:32:34.768Z,100393.47
2023-01-03T14:35:02.715Z,100394.34
2023-01-03T14:37:30.445Z,100396.03
2023-01-03T14:40:03.211Z,100371.63
2023-01-03T14:42:30.252Z,100389.81
2023-01-03T14:44:58.257Z,100381.81
2023-01-03T14:47:45.755Z,100374.31
2023-01-03T14:50:27.224Z,100380.34
2023-01-03T14:52:59.619Z,100393.00
2023-01-03T14:55:30.399Z,100399.09
2023-01-03T14:57:58.388Z,100397.41
2023-01-03T15:00:36.340Z,100391.22
2023-01-03T15:03:04.413Z,100406.38
2023-01-03T15:05:34.280Z,100402.75
2023-01-03T15:08:31.661Z,100398.44
2023-01-03T15:11:06.173Z,100392.53
2023-01-03T15:13:50.897Z,100383.16
2023-01-03T15:16:26.438Z,100413.81
2023-01-03T15:19:02.629Z,100402.66
2023-01-03T15:21:30.322Z,100411.78
2023-01-03T15:23:57.587Z,100417.72
2023-01-03T15:26:28.080Z,100415.13
2023-01-03T15:29:15.600Z,100425.19
2023-01-03T15:31:54.529Z,100431.50
2023-01-03T15:34:30.398Z,100426.88
2023-01-03T15:37:10.729Z,100423.06
2023-01-03T15:39:43.229Z,100423.63
2023-01-03T15:42:44.655Z,100420.47
2023-01-03T15:45:27.636Z,100438.03
2023-01-03T15:48:01.366Z,100429.75
2023-01-03T15:50:51.210Z,100420.47
2023-01-03T15:53:25.893Z,100438.22
2023-01-03T15:56:09.283Z,100420.41
2023-01-03T15:58:39.314Z,100408.31
2023-01-03T16:01:06.995Z,100452.94
2023-01-03T16:03:35.314Z,100433.28
2023-01-03T16:06:07.494Z,100461.31
2023-01-03T16:08:36.747Z,100450.63
2023-01-03T16:11:07.274Z,100460.00
2023-01-03T16:13:44.185Z,100455.88
2023-01-03T16:16:14.385Z,100445.19
2023-01-03T16:18:44.882Z,100449.69
2023-01-03T16:21:15.899Z,100460.66
2023-01-03T16:23:42.738Z,100468.09
2023-01-03T16:26:10.165Z,100440.72
2023-01-03T16:28:39.815Z,100433.00
2023-01-03T16:31:16.097Z,100456.94
2023-01-03T16:33:44.388Z,100445.09
2023-01-03T16:36:32.185Z,100467.34
2023-01-03T16:39:22.855Z,100434.81
2023-01-03T16:42:12.825Z,100388.00
2023-01-03T16:44:42.159Z,100457.97
2023-01-03T16:47:33.616Z,100437.75
2023-01-03T16:50:22.847Z,100473.13
2023-01-03T16:52:55.880Z,100473.13
2023-01-03T16:55:35.904Z,100465.03
2023-01-03T16:58:02.801Z,100475.72
2023-01-03T17:00:31.830Z,100477.63
2023-01-03T17:03:00.352Z,100473.91
2023-01-03T17:05:29.384Z,100476.88
2023-01-03T17:08:18.820Z,100484.50
2023-01-03T17:10:47.590Z,100484.41
2023-01-03T17:13:39.672Z,100485.84
2023-01-03T17:16:12.829Z,100495.00
2023-01-03T17:18:42.371Z,100483.75
2023-01-03T17:21:19.054Z,100493.19
2023-01-03T17:23:47.515Z,100488.34
2023-01-03T17:26:18.223Z,100496.44
2023-01-03T17:28:46.436Z,100505.97
2023-01-03T17:31:22.523Z,100508.56
2023-01-03T17:33:49.676Z,100497.09
2023-01-03T17:36:26.131Z,100499.88
2023-01-03T17:38:54.952Z,100507.09
2023-01-03T17:41:25.588Z,100505.59
2023-01-03T17:43:53.295Z,100499.13
2023-01-03T17:46:40.010Z,100503.13
2023-01-03T17:49:25.644Z,100502.50
2023-01-03T17:51:55.596Z,100505.88
2023-01-03T17:54:27.799Z,100504.47
2023-01-03T17:56:58.920Z,100505.31
2023-01-03T17:59:26.803Z,100511.91
2023-01-03T18:01:56.456Z,100522.22
2023-01-03T18:04:38.287Z,100510.38
2023-01-03T18:07:18.177Z,100509.22
2023-01-03T18:09:45.022Z,100512.28
2023-01-03T18:12:24.563Z,100511.81
2023-01-03T18:14:51.379Z,100504.84
2023-01-03T18:17:32.844Z,100517.44
2023-01-03T18:20:02.558Z,100515.06
2023-01-03T18:22:29.472Z,100480.25
2023-01-03T18:24:57.860Z,100509.81
2023-01-03T18:27:27.519Z,100518.78
2023-01-03T18:29:54.414Z,100515.72
2023-01-03T18:32:24.150Z,100517.34
2023-01-03T18:34:51.471Z,100500.53
2023-01-03T18:37:19.366Z,100519.16
2023-01-03T18:39:46.668Z,100510.75
2023-01-03T18:42:32.808Z,100524.69
2023-01-03T18:44:59.884Z,100516.19
2023-01-03T18:47:27.116Z,100526.41
2023-01-03T18:49:54.107Z,100536.06
2023-01-03T18:52:38.208Z,100527.34
2023-01-03T18:55:07.421Z,100522.28
2023-01-03T18:57:34.785Z,100534.88
2023-01-03T19:00:01.950Z,100535.75
2023-01-03T19:02:30.818Z,100534.22
2023-01-03T19:04:57.827Z,100547.16
2023-01-03T19:07:34.698Z,100555.53
2023-01-03T19:10:05.982Z,100545.63
2023-01-03T19:12:38.641Z,100549.88
2023-01-03T19:15:19.728Z,100545.44
2023-01-03T19:17:46.897Z,100549.78
2023-01-03T19:20:13.793Z,100538.72
2023-01-03T19:22:43.344Z,100544.00
2023-01-03T19:25:18.749Z,100549.09
2023-01-03T19:27:48.756Z,100548.28
2023-01-03T19:30:40.529Z,100549.91
2023-01-03T19:33:12.937Z,100537.47
2023-01-03T19:35:40.034Z,100539.03
2023-01-03T19:38:10.147Z,100534.81
2023-01-03T19:40:39.076Z,100542.69
2023-01-03T19:43:06.706Z,100531.78
2023-01-03T19:45:42.345Z,100532.50
2023-01-03T19:48:35.641Z,100559.69
2023-01-03T19:51:03.126Z,100546.75
2023-01-03T19:53:30.103Z,100555.22
2023-01-03T19:55:57.637Z,100546.53
2023-01-03T19:58:31.576Z,100544.34
2023-01-03T20:01:00.303Z,100545.59
2023-01-03T20:03:43.391Z,100541.81
2023-01-03T20:06:14.524Z,100551.31
2023-01-03T20:08:42.198Z,100528.19
2023-01-03T20:11:29.028Z,100544.81
2023-01-03T20:13:57.027Z,100542.72
2023-01-03T20:16:24.728Z,100546.44
2023-01-03T20:18:52.068Z,100555.34
2023-01-03T20:21:23.288Z,100551.22
2023-01-03T20:31:51.356Z,100540.38
2023-01-03T20:34:18.568Z,100526.44
2023-01-03T20:36:49.979Z,100551.03
2023-01-03T20:39:26.804Z,100554.56
2023-01-03T20:41:57.350Z,100539.78
2023-01-03T20:44:29.163Z,100531.22
2023-01-03T20:46:57.651Z,100536.63
2023-01-03T20:49:29.523Z,100543.31
2023-01-03T20:52:03.291Z,100543.50
2023-01-03T20:54:30.135Z,100550.53
2023-01-03T20:56:57.598Z,100520.44
2023-01-03T20:59:25.115Z,100548.25
2023-01-03T21:01:52.031Z,100546.44
2023-01-03T21:04:18.961Z,100547.88
2023-01-03T21:06:46.672Z,100529.41
2023-01-03T21:09:16.953Z,100524.50
2023-01-03T21:11:46.921Z,100532.41
2023-01-03T21:14:14.920Z,100550.91
2023-01-03T21:16:50.176Z,100541.19
2023-01-03T21:19:21.693Z,100560.56
2023-01-03T21:21:53.143Z,100554.81
2023-01-03T21:24:26.395Z,100544.47
2023-01-03T21:26:53.637Z,100539.31
2023-01-03T21:29:22.194Z,100491.28
2023-01-03T21:31:49.766Z,100550.91
2023-01-03T21:34:19.591Z,100554.03
2023-01-03T21:36:47.931Z,100530.63
2023-01-03T21:39:15.093Z,100554.84
2023-01-03T21:42:02.368Z,100490.81
2023-01-03T21:44:29.387Z,100551.19
2023-01-03T21:47:00.370Z,100555.69
2023-01-03T21:49:27.515Z,100516.94
2023-01-03T21:51:57.899Z,100552.31
2023-01-03T21:54:24.899Z,100555.94
2023-01-03T21:56:51.941Z,100509.97
2023-01-03T21:59:26.517Z,100544.34
2023-01-03T22:02:11.865Z,100558.13
2023-01-03T22:04:38.745Z,100556.41
2023-01-03T22:07:08.585Z,100562.69
2023-01-03T22:09:54.227Z,100551.66
2023-01-03T22:12:20.995Z,100563.63
2023-01-03T22:14:48.093Z,100578.41
2023-01-03T22:17:15.819Z,100544.72
2023-01-03T22:19:49.809Z,100574.34
2023-01-03T22:22:16.609Z,100575.13
2023-01-03T22:24:43.818Z,100540.09
2023-01-03T22:27:12.684Z,100584.25
2023-01-03T22:29:39.417Z,100581.50
2023-01-03T22:32:06.258Z,100577.13
2023-01-03T22:34:33.167Z,100580.72
2023-01-03T22:36:59.909Z,100571.66
2023-01-03T22:39:26.743Z,100588.63
2023-01-03T22:41:53.492Z,100567.03
2023-01-03T22:44:20.226Z,100537.13
2023-01-03T22:46:55.226Z,100595.50
2023-01-03T22:49:21.941Z,100580.50
2023-01-03T22:51:48.717Z,100580.84
2023-01-03T22:54:15.477Z,100557.03
2023-01-03T22:56:42.331Z,100584.53
2023-01-03T22:59:09.159Z,100578.41
2023-01-03T23:01:37.470Z,100582.34
2023-01-03T23:04:06.685Z,100583.44
2023-01-03T23:06:35.971Z,100564.69
2023-01-03T23:09:03.399Z,100566.50
2023-01-03T23:11:50.995Z,100548.78
2023-01-03T23:14:25.063Z,100562.69
2023-01-03T23:16:53.406Z,100571.22
2023-01-03T23:19:23.838Z,100569.94
2023-01-03T23:21:51.432Z,100570.50
2023-01-03T23:24:22.519Z,100578.94
2023-01-03T23:26:49.604Z,100563.03
2023-01-03T23:29:16.797Z,100578.13
2023-01-03T23:31:44.331Z,100578.56
2023-01-03T23:34:12.591Z,100575.34
2023-01-03T23:36:43.485Z,100578.44
2023-01-03T23:39:16.568Z,100567.81
2023-01-03T23:41:43.888Z,100571.47
2023-01-03T23:44:10.638Z,100578.81
2023-01-03T23:46:37.497Z,100587.00
2023-01-03T23:49:04.431Z,100577.53
2023-01-03T23:51:31.213Z,100577.53
2023-01-03T23:53:57.956Z,100581.88
2023-01-03T23:56:25.113Z,100516.19
2023-01-03T23:58:52.898Z,100569.06
